Time;durP1;ratioP1;P1;durP2;ratioP2;P2;SDS_P1;SDS_P2;PMS_P1;PMS_P2;Temp;Humidity;BMP_temperature;BMP_pressure;BME280_temperature;BME280_humidity;BME280_pressure;Samples;Min_cycle;Max_cycle;Signal;HPM_P1;HPM_P2
2020/12/29 00:01:44;;;;;;;10.10;9.07;;;15.70;50.70;;;;;;4923374;29;20056;-76
2020/12/29 00:04:14;;;;;;;10.32;9.27;;;15.70;50.60;;;;;;4939777;29;20099;-76
2020/12/29 00:06:58;;;;;;;10.18;8.77;;;15.70;50.60;;;;;;4939811;29;20059;-78
2020/12/29 00:09:27;;;;;;;10.63;9.50;;;15.70;50.60;;;;;;4939785;29;20052;-76
2020/12/29 00:11:53;;;;;;;9.13;8.23;;;15.70;50.60;;;;;;4939577;29;20051;-76
2020/12/29 00:14:20;;;;;;;10.48;9.38;;;15.70;50.60;;;;;;4939959;29;20170;-78
2020/12/29 00:16:47;;;;;;;10.02;8.75;;;15.70;50.70;;;;;;4940011;29;20052;-75
2020/12/29 00:19:16;;;;;;;10.35;9.25;;;15.70;50.70;;;;;;4940178;29;20054;-76
2020/12/29 00:21:42;;;;;;;10.65;9.55;;;15.70;50.70;;;;;;4939652;29;20463;-77
2020/12/29 00:24:08;;;;;;;10.32;9.15;;;15.70;50.70;;;;;;4939257;29;20063;-76
2020/12/29 00:26:34;;;;;;;9.85;8.85;;;15.70;50.60;;;;;;4939797;29;20359;-77
2020/12/29 00:29:00;;;;;;;9.73;8.73;;;15.70;50.70;;;;;;4939336;29;20067;-76
2020/12/29 00:31:26;;;;;;;10.40;9.20;;;15.70;50.70;;;;;;4939698;29;20134;-78
2020/12/29 00:33:57;;;;;;;9.13;8.23;;;15.70;50.70;;;;;;4938853;29;20071;-75
2020/12/29 00:36:25;;;;;;;9.85;8.85;;;15.70;50.70;;;;;;4939717;29;20122;-76
2020/12/29 00:38:51;;;;;;;10.63;9.20;;;15.70;50.70;;;;;;4939675;29;20130;-76
2020/12/29 00:41:18;;;;;;;9.25;8.32;;;15.70;50.70;;;;;;4939082;29;20082;-77
2020/12/29 00:43:44;;;;;;;9.50;8.50;;;15.70;50.70;;;;;;4939328;29;20067;-75
2020/12/29 00:46:16;;;;;;;9.65;8.65;;;15.70;50.70;;;;;;4939118;29;20055;-77
2020/12/29 00:48:42;;;;;;;9.73;8.25;;;15.70;50.70;;;;;;4939868;29;20177;-75
2020/12/29 00:51:10;;;;;;;10.30;8.68;;;15.70;50.80;;;;;;4939353;29;20077;-76
2020/12/29 00:53:36;;;;;;;10.18;9.05;;;15.70;50.70;;;;;;4938837;29;20079;-76
2020/12/29 00:56:07;;;;;;;10.27;9.15;;;15.70;50.70;;;;;;4938939;29;20044;-75
2020/12/29 00:58:37;;;;;;;9.85;8.85;;;15.70;50.70;;;;;;4939198;29;20142;-75
2020/12/29 01:01:04;;;;;;;9.48;8.50;;;15.70;50.70;;;;;;4939570;29;20048;-76
2020/12/29 01:03:31;;;;;;;10.13;9.13;;;15.70;50.70;;;;;;4938593;29;20051;-76
2020/12/29 01:05:56;;;;;;;10.75;9.50;;;15.60;50.60;;;;;;4938682;29;20463;-75
2020/12/29 01:08:22;;;;;;;9.95;8.95;;;15.70;50.60;;;;;;4939075;29;20063;-76
2020/12/29 01:10:58;;;;;;;10.65;8.98;;;15.70;50.60;;;;;;4938558;29;20051;-77
2020/12/29 01:13:24;;;;;;;9.90;8.90;;;15.70;50.60;;;;;;4937908;29;20503;-77
2020/12/29 01:15:52;;;;;;;11.35;9.13;;;15.60;50.60;;;;;;4938225;29;20050;-75
2020/12/29 01:18:18;;;;;;;10.48;9.40;;;15.60;50.60;;;;;;4938827;29;20448;-76
2020/12/29 01:20:43;;;;;;;10.65;9.18;;;15.70;50.70;;;;;;4938739;29;20432;-76
2020/12/29 01:23:09;;;;;;;10.35;9.25;;;15.70;50.60;;;;;;4938693;29;20122;-76
2020/12/29 01:25:35;;;;;;;10.23;9.07;;;15.60;50.50;;;;;;4938868;29;20361;-76
2020/12/29 01:28:01;;;;;;;9.73;8.40;;;15.60;50.50;;;;;;4938661;29;20055;-76
2020/12/29 01:30:27;;;;;;;10.18;9.00;;;15.70;50.60;;;;;;4937574;29;20070;-76
2020/12/29 01:32:53;;;;;;;9.73;8.57;;;15.60;50.60;;;;;;4939098;29;20114;-75
2020/12/29 01:35:18;;;;;;;9.38;8.35;;;15.70;50.70;;;;;;4937968;29;20130;-75
2020/12/29 01:37:45;;;;;;;11.02;9.18;;;15.60;50.60;;;;;;4938496;29;20047;-76
2020/12/29 01:40:12;;;;;;;9.88;8.88;;;15.60;50.60;;;;;;4938729;29;20048;-75
2020/12/29 01:42:39;;;;;;;11.32;9.25;;;15.60;50.50;;;;;;4938990;29;20075;-76
2020/12/29 01:45:10;;;;;;;9.95;8.77;;;15.60;50.50;;;;;;4937812;29;20047;-75
2020/12/29 01:47:41;;;;;;;10.35;9.20;;;15.60;50.60;;;;;;4938001;29;20131;-75
2020/12/29 01:50:15;;;;;;;10.15;8.70;;;15.60;50.60;;;;;;4938985;29;20059;-78
2020/12/29 01:52:41;;;;;;;10.07;8.93;;;15.60;50.60;;;;;;4938457;29;20360;-75
2020/12/29 01:55:08;;;;;;;10.52;9.43;;;15.60;50.60;;;;;;4937884;29;20058;-76
2020/12/29 01:57:35;;;;;;;10.43;9.32;;;15.70;50.60;;;;;;4938226;29;20051;-76
2020/12/29 02:00:08;;;;;;;10.65;9.05;;;15.60;50.60;;;;;;4938116;29;20371;-76
2020/12/29 02:02:34;;;;;;;9.77;8.35;;;15.60;50.60;;;;;;4938319;29;20048;-76
2020/12/29 02:05:00;;;;;;;11.73;9.48;;;15.70;50.70;;;;;;4937442;29;20058;-76
2020/12/29 02:07:27;;;;;;;9.88;8.52;;;15.70;50.70;;;;;;4937634;29;20150;-76
2020/12/29 02:09:54;;;;;;;11.25;8.50;;;15.70;50.60;;;;;;4938389;29;20427;-78
2020/12/29 02:12:33;;;;;;;10.10;8.55;;;15.60;50.60;;;;;;4937463;29;20051;-76
2020/12/29 02:15:00;;;;;;;10.07;8.90;;;15.60;51.20;;;;;;4937716;29;20055;-76
2020/12/29 02:17:26;;;;;;;9.95;8.75;;;15.70;50.60;;;;;;4938798;29;20044;-77
2020/12/29 02:19:52;;;;;;;10.15;9.05;;;15.60;50.60;;;;;;4937514;29;20491;-74
2020/12/29 02:22:20;;;;;;;9.98;8.95;;;15.70;50.70;;;;;;4936320;29;20051;-78
2020/12/29 02:24:50;;;;;;;10.10;9.07;;;15.60;50.60;;;;;;4937580;29;20432;-77
2020/12/29 02:27:17;;;;;;;10.20;9.10;;;15.60;50.60;;;;;;4937967;29;20364;-75
2020/12/29 02:29:43;;;;;;;10.35;9.18;;;15.60;50.50;;;;;;4937798;29;20056;-75
2020/12/29 02:32:09;;;;;;;9.82;8.65;;;15.60;50.60;;;;;;4937729;29;20048;-76
2020/12/29 02:34:37;;;;;;;11.52;9.38;;;15.60;50.60;;;;;;4939747;29;20044;-77
2020/12/29 02:37:10;;;;;;;9.02;8.13;;;15.60;50.60;;;;;;4941213;29;20040;-76
2020/12/29 02:39:43;;;;;;;11.05;9.50;;;15.70;50.60;;;;;;4941762;29;20106;-76
2020/12/29 02:42:10;;;;;;;10.75;9.27;;;15.60;50.60;;;;;;4941832;29;20043;-77
2020/12/29 02:44:38;;;;;;;10.00;8.90;;;15.70;50.60;;;;;;4941474;29;20071;-77
2020/12/29 02:47:04;;;;;;;9.98;8.98;;;15.60;50.60;;;;;;4941638;29;20067;-78
2020/12/29 02:49:33;;;;;;;11.32;9.15;;;15.60;50.50;;;;;;4942063;29;20475;-77
2020/12/29 02:52:00;;;;;;;9.98;8.98;;;15.60;50.50;;;;;;4940903;29;20050;-75
2020/12/29 02:54:25;;;;;;;9.98;8.50;;;15.70;50.60;;;;;;4941134;29;20043;-76
2020/12/29 02:56:51;;;;;;;9.98;8.90;;;15.60;50.60;;;;;;4941108;29;20056;-77
2020/12/29 02:59:17;;;;;;;9.85;8.35;;;15.60;50.60;;;;;;4941611;29;20043;-76
2020/12/29 03:01:43;;;;;;;9.45;8.32;;;15.60;50.50;;;;;;4941134;29;20044;-75
2020/12/29 03:04:09;;;;;;;10.10;8.63;;;15.70;50.60;;;;;;4940640;29;20058;-77
2020/12/29 03:06:35;;;;;;;10.25;8.90;;;15.70;50.60;;;;;;4941199;29;20452;-75
2020/12/29 03:09:00;;;;;;;9.50;8.13;;;15.60;50.60;;;;;;4940479;29;20098;-76
2020/12/29 03:11:29;;;;;;;10.43;8.68;;;15.60;50.60;;;;;;4941318;29;20461;-75
2020/12/29 03:13:57;;;;;;;9.07;8.00;;;15.60;50.50;;;;;;4940916;29;20075;-76
2020/12/29 03:16:23;;;;;;;10.13;8.65;;;15.60;50.50;;;;;;4940505;29;20539;-77
2020/12/29 03:18:49;;;;;;;10.15;8.07;;;15.70;50.60;;;;;;4940748;29;20051;-76
2020/12/29 03:21:15;;;;;;;9.40;7.78;;;15.60;50.50;;;;;;4940583;29;20404;-76
2020/12/29 03:23:41;;;;;;;7.95;6.82;;;15.60;50.50;;;;;;4940942;29;20048;-76
2020/12/29 03:26:08;;;;;;;9.30;7.78;;;15.60;50.50;;;;;;4940572;29;20054;-75
2020/12/29 03:28:34;;;;;;;8.50;6.90;;;15.60;50.50;;;;;;4940826;29;20044;-76
2020/12/29 03:31:00;;;;;;;7.43;6.63;;;15.60;50.50;;;;;;4941007;29;20058;-75
2020/12/29 03:33:25;;;;;;;8.30;6.65;;;15.60;50.40;;;;;;4940030;29;20047;-75
2020/12/29 03:35:52;;;;;;;8.13;6.93;;;15.70;50.60;;;;;;4941020;29;20150;-77
2020/12/29 03:38:19;;;;;;;8.43;6.80;;;15.60;50.50;;;;;;4940497;29;20055;-76
2020/12/29 03:40:45;;;;;;;8.18;6.82;;;15.60;50.50;;;;;;4940916;29;20055;-76
2020/12/29 03:43:13;;;;;;;7.78;6.88;;;15.60;50.50;;;;;;4940249;29;20043;-76
2020/12/29 03:45:44;;;;;;;7.80;7.00;;;15.60;50.50;;;;;;4940452;29;20102;-76
2020/12/29 03:48:11;;;;;;;8.02;6.80;;;15.60;50.50;;;;;;4940557;29;20074;-77
2020/12/29 03:50:38;;;;;;;8.27;6.90;;;15.60;50.60;;;;;;4940159;29;20068;-76
2020/12/29 03:53:05;;;;;;;9.30;7.18;;;15.60;50.70;;;;;;4940392;29;20047;-75
2020/12/29 03:55:31;;;;;;;8.95;7.03;;;15.60;50.70;;;;;;4940944;29;20047;-77
2020/12/29 03:57:57;;;;;;;8.32;6.97;;;15.60;50.70;;;;;;4939783;29;20138;-75
2020/12/29 04:00:23;;;;;;;7.95;6.53;;;15.60;50.70;;;;;;4938271;29;20086;-76
2020/12/29 04:02:49;;;;;;;7.57;5.95;;;15.60;50.80;;;;;;4938402;29;20040;-76
2020/12/29 04:05:15;;;;;;;8.88;7.10;;;15.50;50.70;;;;;;4920129;29;20131;-76
2020/12/29 04:07:41;;;;;;;7.68;6.35;;;15.60;50.80;;;;;;4921004;29;20048;-79
2020/12/29 04:10:07;;;;;;;9.32;7.00;;;15.60;50.70;;;;;;4921216;29;20059;-77
2020/12/29 04:12:33;;;;;;;7.68;6.10;;;15.60;50.70;;;;;;4921242;29;20044;-76
2020/12/29 04:14:59;;;;;;;7.57;6.15;;;15.60;50.70;;;;;;4938587;29;20048;-76
2020/12/29 04:17:25;;;;;;;7.57;6.15;;;15.60;50.70;;;;;;4938293;29;20063;-76
2020/12/29 04:19:51;;;;;;;7.68;6.57;;;15.60;50.70;;;;;;4939994;29;20052;-77
2020/12/29 04:22:18;;;;;;;6.78;5.85;;;15.60;50.70;;;;;;4931405;29;20123;-76
2020/12/29 04:24:44;;;;;;;8.25;6.03;;;15.60;50.70;;;;;;4936735;29;20125;-76
2020/12/29 04:27:09;;;;;;;6.93;6.13;;;15.50;50.60;;;;;;4940066;29;20447;-75
2020/12/29 04:29:35;;;;;;;7.82;6.57;;;15.60;50.60;;;;;;4939729;29;20048;-76
2020/12/29 04:32:01;;;;;;;6.72;5.93;;;15.60;50.60;;;;;;4940103;29;20051;-77
2020/12/29 04:34:27;;;;;;;8.32;6.43;;;15.50;50.60;;;;;;4925899;29;20112;-75
2020/12/29 04:36:55;;;;;;;7.30;6.30;;;15.60;50.70;;;;;;4920888;29;20338;-74
2020/12/29 04:39:22;;;;;;;7.38;5.45;;;15.60;50.60;;;;;;4920871;29;20471;-77
2020/12/29 04:41:52;;;;;;;6.43;5.45;;;15.60;50.60;;;;;;4920824;29;20048;-76
2020/12/29 04:44:20;;;;;;;7.03;5.53;;;15.60;50.50;;;;;;4932249;29;20343;-76
2020/12/29 04:46:47;;;;;;;7.53;5.85;;;15.60;50.50;;;;;;4921997;29;20111;-77
2020/12/29 04:49:13;;;;;;;16.52;5.65;;;15.50;50.60;;;;;;4921316;29;20044;-78
2020/12/29 04:51:41;;;;;;;6.05;5.10;;;15.60;51.30;;;;;;4920512;29;20508;-76
2020/12/29 04:54:08;;;;;;;6.53;5.45;;;15.60;50.70;;;;;;4931460;29;20095;-76
2020/12/29 04:56:34;;;;;;;7.45;5.85;;;15.60;50.60;;;;;;4923996;29;20491;-76
2020/12/29 04:59:03;;;;;;;8.00;5.90;;;15.60;50.60;;;;;;4939700;29;20048;-78
2020/12/29 05:01:31;;;;;;;7.93;5.63;;;15.60;50.60;;;;;;4938164;29;20040;-77
2020/12/29 05:03:57;;;;;;;7.18;5.75;;;15.60;50.60;;;;;;4932315;29;20048;-75
2020/12/29 05:06:24;;;;;;;6.80;5.50;;;15.60;50.50;;;;;;4920216;29;20448;-77
2020/12/29 05:08:53;;;;;;;6.68;5.07;;;15.60;50.30;;;;;;4934738;29;20141;-78
2020/12/29 05:11:23;;;;;;;6.97;5.25;;;15.60;50.40;;;;;;4919902;29;20124;-77
2020/12/29 05:13:50;;;;;;;6.55;5.07;;;15.60;50.50;;;;;;4920348;29;20055;-80
2020/12/29 05:16:16;;;;;;;6.80;5.15;;;15.60;50.50;;;;;;4937601;29;20134;-76
2020/12/29 05:18:43;;;;;;;6.82;5.03;;;15.60;50.60;;;;;;4939962;29;20417;-77
2020/12/29 05:21:10;;;;;;;5.90;5.00;;;15.60;50.70;;;;;;4939819;29;20047;-79
2020/12/29 05:23:36;;;;;;;6.10;4.50;;;15.60;50.80;;;;;;4938957;29;20047;-79
2020/12/29 05:26:05;;;;;;;10.10;4.63;;;15.60;51.00;;;;;;4939574;29;20518;-78
2020/12/29 05:29:28;;;;;;;;;;;;;;;;;;;;;
2020/12/29 05:32:24;;;;;;;6.32;3.25;;;15.70;51.00;;;;;;4938758;29;20473;-83
2020/12/29 05:34:57;;;;;;;4.63;2.88;;;15.70;51.10;;;;;;4905913;29;20169;-83
2020/12/29 05:41:57;;;;;;;7.60;2.47;;;15.90;51.10;;;;;;4942676;29;20111;-84
2020/12/29 05:44:48;;;;;;;4.47;2.00;;;16.00;51.30;;;;;;4945859;29;20379;-85
2020/12/29 05:47:20;;;;;;;4.47;2.30;;;16.10;51.20;;;;;;4938545;29;20367;-80
2020/12/29 05:49:45;;;;;;;4.95;2.10;;;16.20;51.30;;;;;;4945529;29;20110;-82
2020/12/29 05:52:12;;;;;;;17.63;2.90;;;16.30;51.40;;;;;;4921702;29;20047;-85
2020/12/29 05:54:43;;;;;;;8.77;2.70;;;16.40;51.30;;;;;;4905378;29;20110;-83
2020/12/29 05:57:11;;;;;;;9.38;2.45;;;16.40;51.40;;;;;;4933180;29;20044;-82
2020/12/29 05:59:49;;;;;;;7.85;2.15;;;16.40;51.60;;;;;;4922075;29;20095;-84
2020/12/29 06:02:15;;;;;;;7.47;2.30;;;16.40;51.60;;;;;;4930500;29;20050;-86
2020/12/29 06:04:45;;;;;;;9.60;2.38;;;16.40;51.90;;;;;;4957463;29;20035;-80
2020/12/29 06:07:13;;;;;;;10.98;2.22;;;16.50;52.00;;;;;;4956119;28;20122;-82
2020/12/29 06:09:43;;;;;;;10.80;2.55;;;16.60;52.30;;;;;;4951232;29;20031;-81
2020/12/29 06:12:14;;;;;;;5.40;2.03;;;16.70;52.30;;;;;;4921191;29;20111;-83
2020/12/29 06:14:47;;;;;;;7.55;2.00;;;16.80;52.30;;;;;;4936818;29;20383;-81
2020/12/29 06:17:17;;;;;;;4.93;1.60;;;16.90;52.20;;;;;;4937518;29;20051;-81
2020/12/29 06:20:02;;;;;;;6.22;1.75;;;17.00;52.10;;;;;;4936894;29;20448;-83
2020/12/29 06:22:30;;;;;;;7.93;1.10;;;17.10;52.00;;;;;;4934546;29;20122;-82
2020/12/29 06:24:59;;;;;;;4.85;1.83;;;17.30;51.80;;;;;;4940179;29;20058;-82
2020/12/29 06:27:38;;;;;;;6.90;1.23;;;17.40;51.60;;;;;;4938485;29;20450;-83
2020/12/29 06:30:04;;;;;;;3.85;1.63;;;17.50;51.60;;;;;;4953728;28;20043;-82
2020/12/29 06:32:34;;;;;;;1.60;0.88;;;17.60;51.50;;;;;;4925408;29;20055;-83
2020/12/29 06:35:00;;;;;;;3.42;1.50;;;17.70;51.50;;;;;;4904658;29;20056;-82
2020/12/29 06:37:43;;;;;;;5.53;0.80;;;17.70;51.40;;;;;;4922260;29;20468;-78
2020/12/29 06:40:10;;;;;;;5.13;1.23;;;17.70;51.60;;;;;;4932117;29;20036;-83
2020/12/29 06:42:46;;;;;;;8.38;1.77;;;17.70;51.70;;;;;;4920432;29;20043;-83
2020/12/29 06:45:12;;;;;;;7.70;1.70;;;17.80;51.70;;;;;;4933448;29;20050;-80
2020/12/29 06:47:46;;;;;;;10.25;1.40;;;17.80;51.70;;;;;;4930137;29;20036;-82
2020/12/29 06:50:32;;;;;;;8.88;1.60;;;17.80;51.70;;;;;;4935791;29;20036;-81
2020/12/29 06:53:03;;;;;;;7.25;2.13;;;17.80;52.50;;;;;;4934776;29;20043;-82
2020/12/29 06:55:43;;;;;;;9.85;2.10;;;17.80;51.80;;;;;;4935652;29;20036;-81
2020/12/29 06:58:09;;;;;;;7.00;2.05;;;17.80;51.90;;;;;;4936728;29;20043;-81
2020/12/29 07:00:35;;;;;;;8.82;2.20;;;17.80;51.90;;;;;;4937143;29;20111;-82
2020/12/29 07:03:02;;;;;;;5.97;1.75;;;17.80;51.90;;;;;;4920342;29;20063;-82
2020/12/29 07:05:36;;;;;;;5.18;2.00;;;17.80;51.80;;;;;;4923466;29;20115;-82
2020/12/29 07:08:05;;;;;;;5.93;2.35;;;17.80;51.70;;;;;;4928608;29;20040;-80
2020/12/29 07:10:34;;;;;;;6.15;1.77;;;17.80;51.60;;;;;;4921712;29;20134;-82
2020/12/29 07:13:09;;;;;;;5.80;1.85;;;17.70;51.40;;;;;;4920220;29;20040;-80
2020/12/29 07:15:48;;;;;;;6.38;1.75;;;17.70;51.40;;;;;;4936793;29;20044;-82
2020/12/29 07:18:23;;;;;;;5.95;2.05;;;17.70;51.30;;;;;;4919404;29;20511;-75
2020/12/29 07:43:36;;;;;;;7.82;1.30;;;17.60;51.60;;;;;;4919999;29;20067;-77
2020/12/29 07:46:03;;;;;;;8.40;1.77;;;17.60;51.50;;;;;;4934518;29;20048;-79
2020/12/29 07:49:14;;;;;;;5.03;1.35;;;17.60;51.40;;;;;;4921396;29;20068;-83
2020/12/29 08:26:43;;;;;;;4.15;0.73;;;17.80;51.30;;;;;;4937529;29;20043;-84
2020/12/29 08:29:13;;;;;;;1.75;0.52;;;17.90;51.60;;;;;;4922584;29;20047;-81
2020/12/29 10:03:48;;;;;;;1.25;0.50;;;18.00;51.50;;;;;;6021502;23;20261;-83
2020/12/29 10:09:51;;;;;;;3.45;0.60;;;18.00;51.50;;;;;;4865373;29;20045;-80
2020/12/29 10:12:18;;;;;;;8.50;0.50;;;18.00;51.70;;;;;;4894389;29;20063;-81
2020/12/29 10:14:44;;;;;;;4.25;1.50;;;17.90;51.60;;;;;;4908903;29;20372;-77
2020/12/29 10:21:08;;;;;;;4.88;0.82;;;17.90;51.50;;;;;;4881155;29;20036;-83
2020/12/29 10:24:02;;;;;;;8.00;0.70;;;17.90;52.30;;;;;;4882379;29;20041;-83
2020/12/29 10:26:40;;;;;;;5.78;1.15;;;17.90;51.70;;;;;;4896955;29;20401;-84
2020/12/29 10:29:23;;;;;;;5.43;0.50;;;17.90;51.70;;;;;;4874269;29;20151;-83
2020/12/29 10:31:58;;;;;;;3.30;1.00;;;18.00;51.60;;;;;;4868946;29;20068;-81
2020/12/29 10:34:52;;;;;;;7.85;1.10;;;18.10;51.90;;;;;;4900429;29;20044;-84
2020/12/29 10:37:21;;;;;;;4.47;1.10;;;18.10;51.80;;;;;;4893398;29;20072;-82
2020/12/29 10:39:46;;;;;;;4.88;1.00;;;18.10;52.30;;;;;;4892652;29;20059;-78
2020/12/29 10:42:12;;;;;;;4.70;1.00;;;18.10;52.30;;;;;;4899816;29;20119;-82
2020/12/29 10:44:38;;;;;;;5.30;0.70;;;18.10;52.30;;;;;;4899831;29;20460;-78
2020/12/29 10:47:04;;;;;;;6.10;1.00;;;18.10;52.20;;;;;;4886416;29;20136;-78
2020/12/29 10:49:30;;;;;;;6.60;0.90;;;18.10;52.30;;;;;;4882482;29;20056;-78
2020/12/29 10:51:56;;;;;;;2.20;0.70;;;18.00;52.20;;;;;;4903014;29;20048;-79
2020/12/29 10:55:11;;;;;;;2.85;0.68;;;18.00;52.10;;;;;;4908058;29;20055;-83
2020/12/29 10:57:45;;;;;;;3.85;1.05;;;18.00;52.30;;;;;;4917696;29;20064;-83
2020/12/29 11:00:55;;;;;;;4.25;1.00;;;17.90;52.30;;;;;;4930090;29;20423;-81
2020/12/29 11:03:26;;;;;;;2.95;0.85;;;18.00;52.50;;;;;;4930121;29;20111;-85
2020/12/29 11:05:52;;;;;;;2.28;1.30;;;17.90;52.40;;;;;;4899552;29;20136;-80
2020/12/29 11:08:21;;;;;;;3.92;1.23;;;17.90;52.50;;;;;;4909252;29;20068;-81
2020/12/29 11:10:50;;;;;;;4.18;1.63;;;17.80;52.40;;;;;;4892396;29;20072;-83
2020/12/29 11:13:16;;;;;;;2.67;1.40;;;17.80;52.60;;;;;;4903058;29;20046;-78
2020/12/29 11:15:41;;;;;;;3.05;0.98;;;17.70;52.70;;;;;;4903379;29;20076;-77
2020/12/29 11:18:07;;;;;;;7.35;2.38;;;17.80;52.80;;;;;;4903051;29;20051;-84
2020/12/29 11:21:05;;;;;;;4.85;1.30;;;17.80;52.60;;;;;;4901872;29;20041;-84
2020/12/29 11:23:31;;;;;;;4.15;1.50;;;17.90;52.80;;;;;;4900946;29;20345;-80
2020/12/29 11:25:58;;;;;;;4.35;1.95;;;17.80;52.80;;;;;;4886265;29;20077;-80
2020/12/29 11:28:26;;;;;;;3.17;1.63;;;17.90;52.90;;;;;;4871316;29;20064;-79
2020/12/29 11:30:52;;;;;;;4.85;1.67;;;17.80;53.00;;;;;;4904368;29;20103;-80
2020/12/29 11:33:18;;;;;;;3.45;2.13;;;17.80;53.20;;;;;;4915877;29;20055;-77
2020/12/29 11:35:47;;;;;;;3.15;2.00;;;17.80;53.10;;;;;;4917134;29;20052;-80
2020/12/29 11:38:14;;;;;;;6.75;2.38;;;17.80;52.50;;;;;;4902592;29;20051;-78
2020/12/29 11:40:39;;;;;;;3.67;2.20;;;17.80;51.70;;;;;;4901883;29;20044;-79
2020/12/29 11:43:06;;;;;;;3.20;1.88;;;17.70;51.00;;;;;;4923019;29;20037;-78
2020/12/29 11:45:32;;;;;;;3.65;1.58;;;17.60;51.00;;;;;;4886753;29;20040;-81
2020/12/29 11:47:57;;;;;;;2.33;1.20;;;17.60;51.30;;;;;;4902204;29;20056;-82
2020/12/29 11:50:25;;;;;;;3.03;1.25;;;17.60;51.30;;;;;;4921162;29;20036;-85
2020/12/29 11:53:19;;;;;;;2.85;0.80;;;17.80;51.40;;;;;;4927336;29;20444;-84
2020/12/29 11:56:45;;;;;;;3.75;1.00;;;17.90;51.30;;;;;;4917185;29;20061;-84
2020/12/29 12:00:23;;;;;;;2.30;0.93;;;18.00;51.30;;;;;;4853351;29;20053;-83
2020/12/29 12:19:33;;;;;;;2.33;1.00;;;18.40;52.00;;;;;;4826561;29;20049;-86
2020/12/29 12:22:35;;;;;;;8.73;1.30;;;18.40;51.90;;;;;;4829109;29;20038;-85
2020/12/29 12:25:41;;;;;;;3.08;1.00;;;18.50;52.00;;;;;;4846649;29;20065;-87
2020/12/29 12:28:09;;;;;;;9.05;1.10;;;18.60;52.10;;;;;;4866808;29;20128;-82
2020/12/29 12:30:40;;;;;;;5.63;1.25;;;18.50;52.00;;;;;;4865604;29;20513;-81
2020/12/29 12:33:06;;;;;;;5.63;1.00;;;18.50;52.10;;;;;;4879919;29;20041;-82
2020/12/29 12:36:39;;;;;;;4.72;1.10;;;18.50;52.20;;;;;;4879706;29;20553;-82
2020/12/29 12:39:06;;;;;;;5.85;1.20;;;18.50;52.20;;;;;;4889180;29;20129;-80
2020/12/29 12:41:32;;;;;;;8.82;1.55;;;18.40;52.40;;;;;;4913430;29;20040;-81
2020/12/29 12:43:58;;;;;;;11.38;1.73;;;18.40;52.50;;;;;;4901446;29;20060;-78
2020/12/29 12:46:23;;;;;;;9.80;1.70;;;18.30;52.50;;;;;;4903478;29;20531;-80
2020/12/29 12:48:49;;;;;;;19.98;2.20;;;18.30;52.60;;;;;;4903555;29;20055;-80
2020/12/29 12:51:15;;;;;;;14.40;1.95;;;18.20;52.50;;;;;;4900975;29;20448;-77
2020/12/29 12:53:42;;;;;;;20.98;2.50;;;18.10;52.60;;;;;;4914283;29;20060;-76
2020/12/29 12:56:12;;;;;;;16.65;2.30;;;18.10;52.70;;;;;;4903749;29;20044;-78
2020/12/29 12:58:38;;;;;;;32.20;3.08;;;18.10;52.80;;;;;;4886222;29;20036;-79
2020/12/29 13:01:03;;;;;;;18.35;2.38;;;18.00;52.90;;;;;;4910000;29;20048;-77
2020/12/29 13:03:29;;;;;;;12.68;2.38;;;18.00;52.80;;;;;;4917560;29;20044;-77
2020/12/29 13:05:55;;;;;;;12.57;2.10;;;18.00;52.80;;;;;;4916939;29;20063;-78
2020/12/29 13:08:21;;;;;;;16.52;1.98;;;17.90;52.80;;;;;;4901368;29;20067;-77
2020/12/29 13:10:47;;;;;;;14.50;2.22;;;17.80;52.80;;;;;;4901158;29;20352;-78
2020/12/29 13:13:12;;;;;;;10.48;2.17;;;17.80;52.90;;;;;;4901172;29;20052;-77
2020/12/29 13:15:40;;;;;;;7.50;1.67;;;17.70;52.90;;;;;;4900588;29;20471;-77
2020/12/29 13:18:07;;;;;;;6.05;1.73;;;17.70;52.90;;;;;;4900484;29;20461;-75
2020/12/29 13:20:33;;;;;;;8.65;1.63;;;17.60;52.90;;;;;;4900985;29;20052;-77
2020/12/29 13:22:59;;;;;;;5.88;1.35;;;17.60;53.60;;;;;;4901105;29;20108;-77
2020/12/29 13:25:25;;;;;;;11.85;2.17;;;17.60;53.00;;;;;;4901223;29;20086;-76
2020/12/29 13:27:51;;;;;;;6.28;1.50;;;17.50;52.90;;;;;;4900852;29;20049;-77
2020/12/29 13:30:17;;;;;;;9.15;1.50;;;17.50;52.90;;;;;;4900559;29;20130;-78
2020/12/29 13:32:42;;;;;;;4.55;1.50;;;17.40;53.00;;;;;;4901154;29;20045;-80
2020/12/29 13:35:08;;;;;;;6.88;1.30;;;17.40;52.90;;;;;;4899773;29;20052;-77
2020/12/29 13:37:34;;;;;;;6.72;1.30;;;17.40;52.90;;;;;;4900336;29;20445;-76
2020/12/29 13:40:00;;;;;;;9.20;1.55;;;17.40;53.00;;;;;;4900233;29;20111;-78
2020/12/29 13:42:26;;;;;;;5.57;1.35;;;17.40;53.00;;;;;;4900610;29;20052;-77
2020/12/29 13:44:55;;;;;;;5.72;1.30;;;17.30;52.90;;;;;;4900146;29;20368;-76
2020/12/29 13:47:21;;;;;;;5.35;1.40;;;17.30;52.90;;;;;;4900501;29;20072;-77
2020/12/29 13:49:47;;;;;;;5.07;1.30;;;17.30;52.90;;;;;;4899507;29;20444;-77
2020/12/29 13:52:15;;;;;;;6.00;1.15;;;17.30;53.00;;;;;;4900487;29;20048;-77
2020/12/29 13:54:41;;;;;;;2.80;0.82;;;17.20;52.90;;;;;;4900642;29;20044;-78
2020/12/29 13:57:07;;;;;;;2.78;0.80;;;17.20;52.90;;;;;;4900388;29;20064;-76
2020/12/29 13:59:33;;;;;;;3.05;0.85;;;17.20;53.00;;;;;;4900316;29;20059;-77
2020/12/29 14:01:59;;;;;;;2.38;0.95;;;17.30;53.00;;;;;;4900420;29;20052;-77
2020/12/29 14:04:24;;;;;;;3.78;0.98;;;17.20;52.90;;;;;;4909079;29;20044;-77
2020/12/29 14:06:51;;;;;;;4.95;0.90;;;17.20;52.90;;;;;;4910449;29;20456;-81
2020/12/29 14:09:18;;;;;;;3.63;0.98;;;17.20;53.10;;;;;;4915442;29;20472;-79
2020/12/29 14:11:52;;;;;;;3.33;1.15;;;17.20;53.40;;;;;;4919366;29;20036;-81
2020/12/29 14:14:22;;;;;;;5.93;0.80;;;17.20;53.70;;;;;;4900793;29;20126;-80
2020/12/29 14:16:52;;;;;;;2.75;0.57;;;17.20;53.70;;;;;;4902323;29;20421;-82
2020/12/29 14:19:19;;;;;;;3.97;0.57;;;17.30;53.60;;;;;;4890328;29;20036;-79
2020/12/29 14:21:46;;;;;;;3.80;0.82;;;17.30;53.60;;;;;;4910072;29;20119;-81
2020/12/29 14:24:13;;;;;;;6.75;1.10;;;17.30;53.80;;;;;;4907614;29;20536;-80
2020/12/29 14:26:47;;;;;;;4.55;0.50;;;17.30;53.90;;;;;;4886554;29;20041;-79
2020/12/29 14:29:14;;;;;;;10.73;0.80;;;17.40;54.10;;;;;;4890137;29;20100;-83
2020/12/29 14:31:51;;;;;;;5.03;0.77;;;17.40;54.20;;;;;;4902986;29;20037;-81
2020/12/29 14:34:17;;;;;;;5.82;1.05;;;17.50;54.30;;;;;;4906698;29;20046;-78
2020/12/29 14:36:44;;;;;;;7.57;1.33;;;17.50;54.20;;;;;;4899534;29;20052;-78
2020/12/29 14:39:11;;;;;;;5.53;0.55;;;17.50;53.90;;;;;;4900493;29;20044;-75
2020/12/29 14:41:40;;;;;;;5.00;0.73;;;17.40;53.50;;;;;;4908735;29;20058;-78
2020/12/29 14:44:06;;;;;;;9.85;1.05;;;17.30;53.00;;;;;;4916888;29;20048;-81
2020/12/29 14:46:32;;;;;;;3.13;0.30;;;17.30;53.20;;;;;;4901925;29;20052;-79
2020/12/29 14:48:58;;;;;;;2.45;0.30;;;17.30;52.40;;;;;;4918691;29;20353;-75
2020/12/29 14:51:25;;;;;;;4.68;0.40;;;17.30;52.00;;;;;;4907597;29;20483;-77
2020/12/29 14:53:56;;;;;;;3.42;0.30;;;17.30;51.80;;;;;;4903357;29;20124;-76
2020/12/29 14:56:29;;;;;;;5.50;0.52;;;17.20;51.90;;;;;;4887032;29;20483;-78
2020/12/29 14:58:59;;;;;;;7.72;0.45;;;17.20;52.20;;;;;;4900997;29;20549;-77
2020/12/29 15:01:27;;;;;;;6.50;0.70;;;17.20;52.50;;;;;;4901066;29;20036;-78
2020/12/29 15:03:54;;;;;;;3.42;0.40;;;17.20;52.60;;;;;;4890348;29;20044;-79
2020/12/29 15:06:24;;;;;;;4.10;0.57;;;17.20;52.80;;;;;;4900375;29;20148;-79
2020/12/29 15:08:51;;;;;;;1.27;0.20;;;17.20;53.00;;;;;;4899831;29;20049;-79
2020/12/29 15:11:17;;;;;;;1.17;0.10;;;17.20;53.10;;;;;;4899900;29;20076;-79
2020/12/29 15:13:43;;;;;;;5.32;0.20;;;17.20;53.20;;;;;;4883383;29;20041;-79
2020/12/29 15:16:09;;;;;;;1.17;0.17;;;17.20;53.20;;;;;;4899292;29;20079;-78
2020/12/29 15:18:35;;;;;;;6.30;0.47;;;17.20;53.20;;;;;;4899139;29;20049;-79
2020/12/29 15:21:01;;;;;;;1.05;0.20;;;17.30;53.20;;;;;;4899718;29;20514;-80
2020/12/29 15:23:27;;;;;;;2.20;0.30;;;17.30;53.20;;;;;;4899983;29;20131;-79
2020/12/29 15:25:53;;;;;;;2.38;0.10;;;17.30;53.30;;;;;;4899712;29;20535;-77
2020/12/29 15:28:19;;;;;;;1.33;0.20;;;17.30;53.40;;;;;;4899079;29;20041;-78
2020/12/29 15:30:45;;;;;;;6.85;0.70;;;17.30;53.50;;;;;;4899797;29;20350;-79
2020/12/29 15:33:11;;;;;;;2.67;0.22;;;17.30;53.40;;;;;;4898261;29;20334;-76
2020/12/29 15:35:37;;;;;;;5.82;0.40;;;17.30;53.20;;;;;;4898302;29;20140;-81
2020/12/29 15:38:07;;;;;;;2.55;0.38;;;17.40;53.30;;;;;;4898280;29;20053;-77
2020/12/29 15:40:32;;;;;;;4.13;0.80;;;17.40;53.40;;;;;;4901505;29;20051;-78
2020/12/29 15:42:58;;;;;;;8.02;0.82;;;17.50;53.80;;;;;;4902706;29;20048;-79
2020/12/29 15:45:24;;;;;;;8.10;0.80;;;17.50;53.90;;;;;;4916119;29;20384;-79
2020/12/29 15:56:03;;;;;;;5.90;0.77;;;17.60;53.80;;;;;;4903303;29;20100;-86
2020/12/29 15:58:29;;;;;;;6.55;0.75;;;17.70;53.60;;;;;;4882242;29;20061;-78
2020/12/29 16:00:55;;;;;;;8.15;1.10;;;17.80;53.50;;;;;;4912503;29;20044;-76
2020/12/29 16:03:21;;;;;;;8.23;1.13;;;17.90;53.50;;;;;;4914278;29;20036;-79
2020/12/29 16:05:47;;;;;;;7.00;0.68;;;17.90;53.40;;;;;;4926101;29;20048;-79